Time;durP1;ratioP1;P1;durP2;ratioP2;P2;SDS_P1;SDS_P2;PMS_P1;PMS_P2;Temp;Humidity;BMP_temperature;BMP_pressure;BME280_temperature;BME280_humidity;BME280_pressure;Samples;Min_cycle;Max_cycle;Signal;HPM_P1;HPM_P2
2023/12/29 00:00:06;;;;;;;7.33;2.23;;;;;;;;;;5072618;28;20261;-47
2023/12/29 00:02:32;;;;;;;6.93;2.20;;;;;;;;;;5071538;28;20242;-48
2023/12/29 00:04:58;;;;;;;4.63;2.40;;;;;;;;;;5072950;28;20195;-48
2023/12/29 00:07:25;;;;;;;7.93;2.20;;;;;;;;;;5071862;28;20237;-49
2023/12/29 00:09:52;;;;;;;4.97;2.30;;;;;;;;;;5071314;28;20203;-48
2023/12/29 00:12:18;;;;;;;7.60;1.90;;;;;;;;;;5072043;28;20223;-48
2023/12/29 00:14:44;;;;;;;7.90;2.53;;;;;;;;;;5072433;28;20270;-49
2023/12/29 00:17:10;;;;;;;7.20;2.60;;;;;;;;;;5072493;28;20224;-50
2023/12/29 00:19:36;;;;;;;5.33;1.93;;;;;;;;;;5072612;28;20193;-50
2023/12/29 00:22:02;;;;;;;5.67;1.90;;;;;;;;;;5072321;28;20195;-50
2023/12/29 00:24:31;;;;;;;4.70;2.07;;;;;;;;;;5072058;28;20210;-50
2023/12/29 00:26:58;;;;;;;5.10;2.53;;;;;;;;;;5071842;28;20204;-50
2023/12/29 00:29:24;;;;;;;7.17;1.90;;;;;;;;;;5072361;28;20265;-51
2023/12/29 00:31:51;;;;;;;4.77;1.90;;;;;;;;;;5072095;28;20206;-50
2023/12/29 00:34:17;;;;;;;5.43;2.23;;;;;;;;;;5071853;28;20196;-49
2023/12/29 00:36:42;;;;;;;2.70;1.50;;;;;;;;;;5071957;28;20224;-49
2023/12/29 00:39:08;;;;;;;4.30;1.87;;;;;;;;;;5071803;28;20553;-52
2023/12/29 00:41:36;;;;;;;6.90;2.20;;;;;;;;;;5072199;28;20208;-48
2023/12/29 00:44:02;;;;;;;4.50;2.07;;;;;;;;;;5068288;28;20200;-48
2023/12/29 00:46:28;;;;;;;4.43;1.90;;;;;;;;;;5071754;28;20724;-52
2023/12/29 00:48:54;;;;;;;5.87;2.17;;;;;;;;;;5071920;28;20235;-51
2023/12/29 00:51:20;;;;;;;7.33;2.10;;;;;;;;;;5071394;28;20214;-47
2023/12/29 00:53:46;;;;;;;7.53;2.03;;;;;;;;;;5071848;28;20662;-49
2023/12/29 00:56:12;;;;;;;6.07;2.27;;;;;;;;;;5071947;28;20219;-50
2023/12/29 00:58:39;;;;;;;7.80;2.00;;;;;;;;;;5071942;28;20195;-51
2023/12/29 01:01:06;;;;;;;5.93;2.17;;;;;;;;;;5072015;28;20199;-51
2023/12/29 01:03:31;;;;;;;5.47;2.07;;;;;;;;;;5071848;28;20195;-51
2023/12/29 01:05:57;;;;;;;6.57;2.13;;;;;;;;;;5071643;28;20194;-49
2023/12/29 01:08:23;;;;;;;5.67;2.10;;;;;;;;;;5071324;28;20615;-49
2023/12/29 01:10:49;;;;;;;6.07;2.00;;;;;;;;;;5071773;28;20208;-47
2023/12/29 01:13:15;;;;;;;5.07;1.90;;;;;;;;;;5071668;28;20278;-50
2023/12/29 01:15:45;;;;;;;5.43;2.17;;;;;;;;;;5071633;28;20288;-48
2023/12/29 01:18:12;;;;;;;6.87;2.40;;;;;;;;;;5063476;28;20298;-49
2023/12/29 01:20:39;;;;;;;7.00;2.07;;;;;;;;;;5045593;28;20231;-50
2023/12/29 01:23:05;;;;;;;9.13;2.60;;;;;;;;;;5049798;28;20204;-50
2023/12/29 01:25:31;;;;;;;7.20;2.37;;;;;;;;;;5051523;28;20530;-49
2023/12/29 01:27:57;;;;;;;11.63;2.13;;;;;;;;;;5051606;28;20291;-51
2023/12/29 01:30:23;;;;;;;4.10;1.93;;;;;;;;;;5051561;28;20478;-51
2023/12/29 01:32:51;;;;;;;7.07;2.07;;;;;;;;;;5051482;28;20200;-51
2023/12/29 01:35:17;;;;;;;6.40;2.47;;;;;;;;;;5051545;28;20323;-52
2023/12/29 01:37:43;;;;;;;7.20;2.40;;;;;;;;;;5051625;28;20279;-50
2023/12/29 01:40:09;;;;;;;4.83;2.17;;;;;;;;;;5051139;28;20572;-49
2023/12/29 01:42:35;;;;;;;4.77;2.40;;;;;;;;;;5051536;28;20194;-48
2023/12/29 01:45:01;;;;;;;5.90;2.13;;;;;;;;;;5051638;28;20609;-50
2023/12/29 01:47:27;;;;;;;8.17;2.50;;;;;;;;;;5051410;28;20266;-47
2023/12/29 01:49:55;;;;;;;10.50;2.63;;;;;;;;;;5051493;28;20192;-49
2023/12/29 01:52:21;;;;;;;7.07;2.60;;;;;;;;;;5051371;28;20299;-49
2023/12/29 01:54:48;;;;;;;4.40;2.03;;;;;;;;;;5051610;28;20227;-48
2023/12/29 01:57:14;;;;;;;6.97;2.77;;;;;;;;;;5051305;28;20565;-49
2023/12/29 01:59:40;;;;;;;5.90;2.23;;;;;;;;;;5051435;28;20290;-49
2023/12/29 02:02:07;;;;;;;9.37;2.30;;;;;;;;;;5051406;28;20210;-49
2023/12/29 02:04:33;;;;;;;7.17;2.67;;;;;;;;;;5051315;28;20228;-52
2023/12/29 02:07:01;;;;;;;7.70;2.20;;;;;;;;;;5050895;28;20196;-49
2023/12/29 02:09:27;;;;;;;5.67;2.47;;;;;;;;;;5047129;28;20219;-50
2023/12/29 02:11:53;;;;;;;3.97;2.20;;;;;;;;;;5049467;28;20196;-49
2023/12/29 02:14:20;;;;;;;8.13;2.50;;;;;;;;;;5045785;28;20197;-48
2023/12/29 02:16:49;;;;;;;10.33;2.60;;;;;;;;;;5062189;28;20231;-49
2023/12/29 02:19:25;;;;;;;7.00;2.33;;;;;;;;;;5065901;28;20680;-49
2023/12/29 02:21:51;;;;;;;6.33;2.67;;;;;;;;;;5065920;28;20203;-49
2023/12/29 02:24:18;;;;;;;5.10;2.17;;;;;;;;;;5069398;28;20723;-49
2023/12/29 02:26:48;;;;;;;3.80;2.40;;;;;;;;;;5064113;28;20206;-50
2023/12/29 02:29:15;;;;;;;5.80;2.10;;;;;;;;;;5069067;28;20206;-49
2023/12/29 02:31:43;;;;;;;6.07;2.10;;;;;;;;;;5064917;28;20716;-49
2023/12/29 02:34:11;;;;;;;7.70;2.27;;;;;;;;;;5069590;28;20196;-50
2023/12/29 02:36:42;;;;;;;4.83;2.03;;;;;;;;;;5065769;28;20425;-49
2023/12/29 02:39:08;;;;;;;5.20;1.93;;;;;;;;;;5065508;28;20195;-50
2023/12/29 02:41:34;;;;;;;4.37;2.03;;;;;;;;;;5069297;28;20204;-49
2023/12/29 02:44:01;;;;;;;7.50;2.10;;;;;;;;;;5065812;28;20188;-49
2023/12/29 02:46:28;;;;;;;6.87;2.73;;;;;;;;;;5069109;28;20847;-50
2023/12/29 02:48:54;;;;;;;4.60;1.77;;;;;;;;;;5069492;28;20203;-49
2023/12/29 02:51:20;;;;;;;5.50;2.10;;;;;;;;;;5067337;28;20202;-50
2023/12/29 02:53:47;;;;;;;6.57;2.17;;;;;;;;;;5069559;28;20191;-51
2023/12/29 02:56:13;;;;;;;6.13;2.47;;;;;;;;;;5072534;28;20239;-50
2023/12/29 02:58:39;;;;;;;7.23;2.73;;;;;;;;;;5067435;28;20269;-50
2023/12/29 03:01:06;;;;;;;8.73;2.60;;;;;;;;;;5067187;28;20199;-49
2023/12/29 03:03:32;;;;;;;5.33;2.70;;;;;;;;;;5065421;28;20205;-49
2023/12/29 03:05:58;;;;;;;9.77;2.70;;;;;;;;;;5064045;28;20187;-50
2023/12/29 03:08:24;;;;;;;6.13;2.40;;;;;;;;;;5065686;28;20527;-50
2023/12/29 03:10:50;;;;;;;6.50;2.27;;;;;;;;;;5068902;28;20202;-49
2023/12/29 03:13:16;;;;;;;6.63;2.50;;;;;;;;;;5063589;28;20196;-47
2023/12/29 03:15:42;;;;;;;8.33;2.50;;;;;;;;;;5063548;28;20229;-49
2023/12/29 03:18:09;;;;;;;5.00;2.33;;;;;;;;;;5065417;28;20331;-49
2023/12/29 03:20:35;;;;;;;6.70;2.60;;;;;;;;;;5061706;28;20207;-49
2023/12/29 03:23:01;;;;;;;6.10;2.30;;;;;;;;;;5065197;28;20207;-49
2023/12/29 03:25:27;;;;;;;5.10;2.30;;;;;;;;;;5065183;28;20282;-49
2023/12/29 03:27:53;;;;;;;8.20;2.17;;;;;;;;;;5066648;28;20572;-50
2023/12/29 03:30:19;;;;;;;5.90;2.20;;;;;;;;;;5066776;28;20253;-47
2023/12/29 03:32:45;;;;;;;3.23;2.00;;;;;;;;;;5065172;28;20204;-50
2023/12/29 03:35:12;;;;;;;5.23;2.17;;;;;;;;;;5061161;28;20230;-48
2023/12/29 03:37:38;;;;;;;4.67;2.30;;;;;;;;;;5064824;28;20207;-49
2023/12/29 03:40:05;;;;;;;4.50;1.80;;;;;;;;;;5066467;28;20601;-48
2023/12/29 03:42:31;;;;;;;5.50;2.17;;;;;;;;;;5064319;28;20902;-48
2023/12/29 03:44:58;;;;;;;4.87;2.03;;;;;;;;;;5060736;28;20196;-48
2023/12/29 03:47:24;;;;;;;5.17;2.30;;;;;;;;;;5064499;28;20235;-48
2023/12/29 03:49:50;;;;;;;6.23;2.00;;;;;;;;;;5063194;28;20223;-49
2023/12/29 03:52:17;;;;;;;2.90;1.50;;;;;;;;;;5064190;28;20192;-48
2023/12/29 03:54:43;;;;;;;5.27;1.80;;;;;;;;;;5064666;28;20261;-50
2023/12/29 03:57:09;;;;;;;3.37;1.63;;;;;;;;;;5062300;28;20227;-48
2023/12/29 03:59:37;;;;;;;4.87;1.70;;;;;;;;;;5062661;28;20202;-48
2023/12/29 04:02:03;;;;;;;4.57;1.80;;;;;;;;;;5061006;28;20205;-48
2023/12/29 04:04:29;;;;;;;4.03;1.70;;;;;;;;;;5061103;28;20192;-48
2023/12/29 04:06:55;;;;;;;5.93;1.93;;;;;;;;;;5062634;28;20248;-48
2023/12/29 04:09:22;;;;;;;4.43;2.20;;;;;;;;;;5063663;28;20241;-48
2023/12/29 04:11:48;;;;;;;3.90;1.90;;;;;;;;;;5063974;28;20210;-47
2023/12/29 04:14:14;;;;;;;3.07;1.90;;;;;;;;;;5067479;28;20207;-48
2023/12/29 04:16:40;;;;;;;4.43;2.17;;;;;;;;;;5063826;28;20258;-48
2023/12/29 04:19:06;;;;;;;5.27;2.07;;;;;;;;;;5060234;28;20294;-47
2023/12/29 04:21:32;;;;;;;5.67;2.30;;;;;;;;;;5061895;28;20744;-48
2023/12/29 04:23:58;;;;;;;4.67;1.93;;;;;;;;;;5063689;28;20210;-49
2023/12/29 04:26:26;;;;;;;4.87;1.83;;;;;;;;;;5061252;28;20670;-48
2023/12/29 04:28:51;;;;;;;4.20;1.73;;;;;;;;;;5063288;28;20230;-48
2023/12/29 04:31:17;;;;;;;5.80;2.20;;;;;;;;;;5058759;28;20709;-48
2023/12/29 04:33:43;;;;;;;3.63;1.97;;;;;;;;;;5061983;28;20203;-49
2023/12/29 04:36:09;;;;;;;4.60;2.10;;;;;;;;;;5061460;28;20697;-49
2023/12/29 04:38:35;;;;;;;7.37;2.23;;;;;;;;;;5061735;28;20202;-48
2023/12/29 04:41:01;;;;;;;5.70;2.20;;;;;;;;;;5061787;28;20204;-48
2023/12/29 04:43:29;;;;;;;6.10;2.07;;;;;;;;;;5060132;28;20701;-48
2023/12/29 04:45:56;;;;;;;3.70;1.80;;;;;;;;;;5059739;28;20192;-49
2023/12/29 04:48:22;;;;;;;5.77;2.60;;;;;;;;;;5061449;28;20211;-49
2023/12/29 04:50:49;;;;;;;5.17;2.03;;;;;;;;;;5061838;28;20207;-49
2023/12/29 04:53:14;;;;;;;5.07;2.20;;;;;;;;;;5060094;28;20219;-48
2023/12/29 04:55:40;;;;;;;8.57;2.50;;;;;;;;;;5059581;28;20635;-48
2023/12/29 04:58:06;;;;;;;6.13;1.90;;;;;;;;;;5060044;28;20281;-48
2023/12/29 05:00:34;;;;;;;5.93;2.00;;;;;;;;;;5059788;28;20227;-49
2023/12/29 05:03:00;;;;;;;5.40;2.20;;;;;;;;;;5063322;28;20204;-50
2023/12/29 05:05:26;;;;;;;3.13;1.70;;;;;;;;;;5059166;28;20203;-49
2023/12/29 05:07:52;;;;;;;5.37;2.30;;;;;;;;;;5059646;28;20709;-48
2023/12/29 05:10:18;;;;;;;6.73;2.00;;;;;;;;;;5059845;28;20234;-48
2023/12/29 05:12:44;;;;;;;5.07;2.17;;;;;;;;;;5059543;28;20601;-48
2023/12/29 05:15:10;;;;;;;5.27;1.80;;;;;;;;;;5061368;28;20826;-48
2023/12/29 05:17:39;;;;;;;5.33;1.90;;;;;;;;;;5057575;28;20219;-48
2023/12/29 05:20:06;;;;;;;3.63;2.07;;;;;;;;;;5058942;28;20200;-48
2023/12/29 05:22:32;;;;;;;4.07;1.97;;;;;;;;;;5061191;28;20203;-49
2023/12/29 05:25:00;;;;;;;3.53;2.50;;;;;;;;;;5058080;28;20289;-48
2023/12/29 05:27:26;;;;;;;4.37;2.20;;;;;;;;;;5057668;28;20278;-49
2023/12/29 05:29:52;;;;;;;3.37;2.00;;;;;;;;;;5059684;28;20200;-49
2023/12/29 05:32:18;;;;;;;4.40;2.20;;;;;;;;;;5059552;28;20249;-49
2023/12/29 05:34:48;;;;;;;3.00;2.20;;;;;;;;;;5061122;28;20218;-50
2023/12/29 05:37:14;;;;;;;3.87;2.30;;;;;;;;;;5057954;28;20247;-49
2023/12/29 05:39:42;;;;;;;5.17;2.87;;;;;;;;;;5057716;28;20704;-48
2023/12/29 05:42:08;;;;;;;7.17;2.77;;;;;;;;;;5057699;28;20221;-50
2023/12/29 05:44:36;;;;;;;5.77;2.67;;;;;;;;;;5061139;28;20705;-50
2023/12/29 05:47:02;;;;;;;6.23;2.77;;;;;;;;;;5061119;28;20239;-50
2023/12/29 05:49:28;;;;;;;6.50;3.67;;;;;;;;;;5068018;28;20199;-50
2023/12/29 05:51:55;;;;;;;5.83;2.83;;;;;;;;;;5071470;28;20609;-49
2023/12/29 05:54:21;;;;;;;5.07;2.80;;;;;;;;;;5071471;28;20200;-49
2023/12/29 05:56:47;;;;;;;5.17;3.17;;;;;;;;;;5071362;28;20579;-49
2023/12/29 05:59:13;;;;;;;8.83;3.40;;;;;;;;;;5071642;28;20681;-49
2023/12/29 06:01:39;;;;;;;9.67;3.30;;;;;;;;;;5071395;28;20210;-49
2023/12/29 06:04:05;;;;;;;9.97;3.70;;;;;;;;;;5058729;28;20203;-49
2023/12/29 06:06:31;;;;;;;6.43;3.23;;;;;;;;;;5058648;28;20861;-49
2023/12/29 06:08:59;;;;;;;8.03;3.03;;;;;;;;;;5061402;28;20316;-49
2023/12/29 06:11:25;;;;;;;14.13;7.03;;;;;;;;;;5060192;28;20654;-48
2023/12/29 06:13:51;;;;;;;8.73;3.80;;;;;;;;;;5062861;28;20192;-48
2023/12/29 06:16:20;;;;;;;7.03;3.37;;;;;;;;;;5064076;28;20229;-50
2023/12/29 06:18:46;;;;;;;6.47;3.40;;;;;;;;;;5064356;28;20195;-49
2023/12/29 06:21:12;;;;;;;4.50;3.20;;;;;;;;;;5066017;28;20283;-50
2023/12/29 06:23:38;;;;;;;6.90;2.80;;;;;;;;;;5061103;28;20717;-49
2023/12/29 06:26:05;;;;;;;8.90;3.00;;;;;;;;;;5064561;28;20191;-50
2023/12/29 06:28:31;;;;;;;9.90;3.37;;;;;;;;;;5062813;28;20215;-50
2023/12/29 06:30:57;;;;;;;8.30;3.30;;;;;;;;;;5062171;28;20191;-50
2023/12/29 06:33:23;;;;;;;8.07;2.97;;;;;;;;;;5064231;28;20195;-50
2023/12/29 06:35:50;;;;;;;7.93;2.90;;;;;;;;;;5062573;28;20228;-50
2023/12/29 06:38:16;;;;;;;8.33;3.03;;;;;;;;;;5069220;28;20203;-50
2023/12/29 06:40:42;;;;;;;10.03;3.00;;;;;;;;;;5074419;28;20221;-49
2023/12/29 06:43:09;;;;;;;8.50;2.70;;;;;;;;;;5074636;28;20248;-49
2023/12/29 06:45:35;;;;;;;10.13;3.47;;;;;;;;;;5074453;28;20208;-49
2023/12/29 06:48:01;;;;;;;6.77;3.20;;;;;;;;;;5074458;28;20238;-50
2023/12/29 06:50:27;;;;;;;5.00;2.50;;;;;;;;;;5074502;28;20238;-50
2023/12/29 06:52:53;;;;;;;5.53;2.47;;;;;;;;;;5074598;28;20195;-50
2023/12/29 06:55:20;;;;;;;7.97;2.90;;;;;;;;;;5074387;28;20206;-50
2023/12/29 06:57:46;;;;;;;7.70;2.90;;;;;;;;;;5074521;28;20552;-49
2023/12/29 07:00:14;;;;;;;5.60;2.40;;;;;;;;;;5074326;28;20206;-49
2023/12/29 07:02:40;;;;;;;11.90;3.17;;;;;;;;;;5074133;28;20298;-49
2023/12/29 07:05:06;;;;;;;7.33;3.10;;;;;;;;;;5074316;28;20222;-49
2023/12/29 07:07:32;;;;;;;8.23;2.80;;;;;;;;;;5074215;28;20196;-49
2023/12/29 07:09:58;;;;;;;6.27;2.70;;;;;;;;;;5074488;28;20531;-49
2023/12/29 07:12:24;;;;;;;8.70;2.40;;;;;;;;;;5074084;28;20206;-50
2023/12/29 07:14:50;;;;;;;7.33;2.43;;;;;;;;;;5073996;28;20249;-50
2023/12/29 07:17:17;;;;;;;7.93;2.63;;;;;;;;;;5073895;28;20223;-49
2023/12/29 07:19:43;;;;;;;11.73;2.90;;;;;;;;;;5074096;28;20203;-49
2023/12/29 07:22:09;;;;;;;8.67;2.67;;;;;;;;;;5074044;28;20692;-49
2023/12/29 07:24:36;;;;;;;9.80;2.90;;;;;;;;;;5073837;28;20202;-50
2023/12/29 07:27:02;;;;;;;10.70;2.87;;;;;;;;;;5073930;28;20192;-50
2023/12/29 07:29:28;;;;;;;8.47;2.40;;;;;;;;;;5054763;28;20200;-49
2023/12/29 07:31:54;;;;;;;8.27;2.80;;;;;;;;;;5053656;28;20211;-49
2023/12/29 07:34:21;;;;;;;8.00;2.77;;;;;;;;;;5053688;28;20200;-50
2023/12/29 07:36:48;;;;;;;10.90;2.80;;;;;;;;;;5053442;28;20661;-50
2023/12/29 07:39:14;;;;;;;7.80;2.37;;;;;;;;;;5053745;28;20200;-50
2023/12/29 07:41:40;;;;;;;7.97;2.40;;;;;;;;;;5053274;28;20243;-50
2023/12/29 07:44:06;;;;;;;11.27;3.30;;;;;;;;;;5053587;28;20200;-49
2023/12/29 07:46:32;;;;;;;11.33;3.43;;;;;;;;;;5053234;28;20242;-49
2023/12/29 07:48:58;;;;;;;8.57;2.97;;;;;;;;;;5053627;28;20296;-50
2023/12/29 07:51:26;;;;;;;9.10;2.93;;;;;;;;;;5053381;28;20236;-50
2023/12/29 07:53:52;;;;;;;10.77;3.10;;;;;;;;;;5053180;28;20196;-50
2023/12/29 07:56:18;;;;;;;8.57;2.87;;;;;;;;;;5052851;28;20254;-50
2023/12/29 07:58:44;;;;;;;16.70;4.27;;;;;;;;;;5053322;28;20204;-50
2023/12/29 08:01:11;;;;;;;7.97;2.80;;;;;;;;;;5053000;28;20207;-49
2023/12/29 08:03:36;;;;;;;12.13;3.47;;;;;;;;;;5053082;28;20576;-49
2023/12/29 08:06:03;;;;;;;7.33;3.47;;;;;;;;;;5053242;28;20196;-50
2023/12/29 08:08:30;;;;;;;13.50;3.60;;;;;;;;;;5053062;28;20200;-50
2023/12/29 08:10:56;;;;;;;11.47;3.87;;;;;;;;;;5052860;28;20204;-49
2023/12/29 08:13:22;;;;;;;12.60;3.47;;;;;;;;;;5052909;28;20203;-49
2023/12/29 08:15:48;;;;;;;9.40;3.57;;;;;;;;;;5052708;28;20259;-50
2023/12/29 08:18:14;;;;;;;10.00;3.60;;;;;;;;;;5052813;28;20247;-50
2023/12/29 08:20:40;;;;;;;8.90;3.37;;;;;;;;;;5052745;28;20200;-49
2023/12/29 08:23:06;;;;;;;12.97;3.13;;;;;;;;;;5052821;28;20224;-49
2023/12/29 08:25:33;;;;;;;9.17;3.33;;;;;;;;;;5052592;28;20227;-49
2023/12/29 08:27:59;;;;;;;8.30;2.93;;;;;;;;;;5052659;28;20211;-48
2023/12/29 08:30:25;;;;;;;9.30;2.53;;;;;;;;;;5052113;28;20200;-49
2023/12/29 08:32:51;;;;;;;12.70;2.80;;;;;;;;;;5052480;28;20226;-49
2023/12/29 08:35:17;;;;;;;8.83;3.13;;;;;;;;;;5052328;28;20572;-48
2023/12/29 08:37:43;;;;;;;10.77;2.97;;;;;;;;;;5052366;28;20277;-48
2023/12/29 08:40:09;;;;;;;9.77;2.80;;;;;;;;;;5052561;28;20227;-49
2023/12/29 08:42:37;;;;;;;13.10;3.10;;;;;;;;;;5052488;28;20224;-49
2023/12/29 08:45:03;;;;;;;7.33;2.60;;;;;;;;;;5052486;28;20200;-49
2023/12/29 08:47:29;;;;;;;15.07;3.17;;;;;;;;;;5052402;28;20332;-49
2023/12/29 08:49:55;;;;;;;10.33;3.07;;;;;;;;;;5052273;28;20287;-50
2023/12/29 08:52:21;;;;;;;9.63;3.40;;;;;;;;;;5052372;28;20218;-50
2023/12/29 08:54:47;;;;;;;8.87;2.80;;;;;;;;;;5052164;28;20196;-50
2023/12/29 08:57:13;;;;;;;9.13;2.70;;;;;;;;;;5052373;28;20230;-49
2023/12/29 08:59:40;;;;;;;13.87;3.33;;;;;;;;;;5052113;28;20200;-49
2023/12/29 09:02:07;;;;;;;7.83;3.03;;;;;;;;;;5052234;28;20204;-50
2023/12/29 09:04:33;;;;;;;8.50;2.43;;;;;;;;;;5048655;28;20207;-50
2023/12/29 09:06:59;;;;;;;9.60;2.73;;;;;;;;;;5038501;28;20192;-50
2023/12/29 09:09:25;;;;;;;12.03;4.00;;;;;;;;;;5038197;28;20251;-50
2023/12/29 09:11:51;;;;;;;7.93;2.60;;;;;;;;;;5039578;28;20193;-49
2023/12/29 09:14:17;;;;;;;5.23;2.43;;;;;;;;;;5039597;28;20199;-50
2023/12/29 09:16:46;;;;;;;10.70;3.73;;;;;;;;;;5037336;28;20251;-50
2023/12/29 09:19:13;;;;;;;11.87;3.73;;;;;;;;;;5038624;28;20295;-51
2023/12/29 09:21:39;;;;;;;8.10;3.13;;;;;;;;;;5040664;28;20207;-51
2023/12/29 09:24:05;;;;;;;9.57;2.53;;;;;;;;;;5037670;28;20651;-52
2023/12/29 09:26:31;;;;;;;9.07;3.40;;;;;;;;;;5039766;28;20203;-51
2023/12/29 09:28:57;;;;;;;10.07;3.30;;;;;;;;;;5039491;28;20286;-49
2023/12/29 09:31:23;;;;;;;8.63;3.70;;;;;;;;;;5039256;28;20742;-50
2023/12/29 09:33:50;;;;;;;8.47;2.73;;;;;;;;;;5037747;28;20208;-49
2023/12/29 09:36:16;;;;;;;6.27;2.50;;;;;;;;;;5039582;28;20226;-52
2023/12/29 09:38:46;;;;;;;7.57;2.30;;;;;;;;;;5041294;28;20204;-50
2023/12/29 09:41:14;;;;;;;8.07;2.63;;;;;;;;;;5043586;28;20199;-50
2023/12/29 09:43:42;;;;;;;9.43;2.53;;;;;;;;;;5043772;28;20207;-54
2023/12/29 09:46:08;;;;;;;8.40;2.47;;;;;;;;;;5041902;28;20202;-52
2023/12/29 09:48:37;;;;;;;5.47;2.67;;;;;;;;;;5045094;28;20613;-49
2023/12/29 09:51:05;;;;;;;10.57;2.83;;;;;;;;;;5043379;28;20200;-50
2023/12/29 09:53:31;;;;;;;7.97;2.07;;;;;;;;;;5041951;28;20220;-50
2023/12/29 09:55:58;;;;;;;6.97;1.80;;;;;;;;;;5053014;28;20690;-51
2023/12/29 09:58:25;;;;;;;6.23;2.00;;;;;;;;;;5055526;28;20769;-50
2023/12/29 10:00:51;;;;;;;4.07;1.93;;;;;;;;;;5055232;28;20192;-51
2023/12/29 10:03:18;;;;;;;6.70;1.90;;;;;;;;;;5055506;28;20200;-49
2023/12/29 10:05:45;;;;;;;4.90;1.53;;;;;;;;;;5055185;28;20663;-48
2023/12/29 10:08:13;;;;;;;3.80;1.73;;;;;;;;;;5055104;28;20330;-50
2023/12/29 10:10:40;;;;;;;3.20;1.80;;;;;;;;;;5055118;28;20218;-50
2023/12/29 10:13:06;;;;;;;4.10;1.50;;;;;;;;;;5051275;28;20274;-51
2023/12/29 10:15:35;;;;;;;4.57;2.00;;;;;;;;;;5053378;28;20200;-51
2023/12/29 10:18:07;;;;;;;5.77;1.80;;;;;;;;;;5055110;28;20258;-51
2023/12/29 10:20:38;;;;;;;3.67;1.77;;;;;;;;;;5055035;28;20259;-51
2023/12/29 10:23:09;;;;;;;6.03;2.10;;;;;;;;;;5054675;28;20197;-52
2023/12/29 10:25:36;;;;;;;3.63;1.90;;;;;;;;;;5051351;28;20199;-50
2023/12/29 10:28:03;;;;;;;4.17;1.83;;;;;;;;;;5054613;28;20204;-51
2023/12/29 10:30:31;;;;;;;4.13;1.70;;;;;;;;;;5054567;28;20197;-52
2023/12/29 10:32:58;;;;;;;5.17;1.80;;;;;;;;;;5054743;28;20568;-50
2023/12/29 10:35:24;;;;;;;6.23;2.13;;;;;;;;;;5054905;28;20235;-50
2023/12/29 10:37:52;;;;;;;3.43;2.00;;;;;;;;;;5052626;28;20224;-50
2023/12/29 10:40:18;;;;;;;3.83;2.20;;;;;;;;;;5054913;28;20196;-49
2023/12/29 10:42:53;;;;;;;4.07;1.93;;;;;;;;;;5051096;28;20667;-50
2023/12/29 10:45:24;;;;;;;3.30;1.70;;;;;;;;;;5052490;28;20207;-50
2023/12/29 10:47:50;;;;;;;3.37;1.60;;;;;;;;;;5048974;28;20289;-49
2023/12/29 10:50:16;;;;;;;3.33;1.90;;;;;;;;;;5051910;28;20691;-49
2023/12/29 10:52:42;;;;;;;6.80;3.63;;;;;;;;;;5071908;28;20566;-49
2023/12/29 10:55:09;;;;;;;5.60;1.90;;;;;;;;;;5069187;28;20219;-50
2023/12/29 10:57:36;;;;;;;4.13;1.90;;;;;;;;;;5048102;28;20239;-50
2023/12/29 11:00:05;;;;;;;4.00;1.70;;;;;;;;;;5048988;28;20200;-51
2023/12/29 11:02:32;;;;;;;3.27;1.80;;;;;;;;;;5052367;28;20208;-49
2023/12/29 11:05:05;;;;;;;2.13;1.53;;;;;;;;;;5051098;28;20429;-49
2023/12/29 11:07:32;;;;;;;3.53;1.60;;;;;;;;;;5054278;28;20241;-48
2023/12/29 11:10:00;;;;;;;2.60;1.77;;;;;;;;;;5054107;28;20303;-49
2023/12/29 11:12:26;;;;;;;2.50;1.60;;;;;;;;;;5051254;28;20212;-49
2023/12/29 11:14:53;;;;;;;2.40;1.80;;;;;;;;;;5070240;28;20211;-49
2023/12/29 11:17:21;;;;;;;5.77;2.07;;;;;;;;;;5074017;28;20239;-49
2023/12/29 11:19:50;;;;;;;3.50;1.90;;;;;;;;;;5073561;28;20596;-50
2023/12/29 11:22:18;;;;;;;2.97;1.70;;;;;;;;;;5073494;28;20612;-49
2023/12/29 11:24:46;;;;;;;2.00;1.57;;;;;;;;;;5073390;28;20229;-50
2023/12/29 11:27:12;;;;;;;7.30;5.57;;;;;;;;;;5073464;28;20187;-48
2023/12/29 11:29:40;;;;;;;1.83;1.60;;;;;;;;;;5073590;28;20203;-48
2023/12/29 11:32:07;;;;;;;2.70;1.90;;;;;;;;;;5069857;28;20286;-48
2023/12/29 11:34:36;;;;;;;2.40;1.80;;;;;;;;;;5073619;28;20198;-49
2023/12/29 11:37:11;;;;;;;2.23;1.80;;;;;;;;;;5073385;28;20776;-49
2023/12/29 11:39:40;;;;;;;3.27;2.20;;;;;;;;;;5072723;28;20203;-49
2023/12/29 11:42:12;;;;;;;3.93;2.20;;;;;;;;;;5073371;28;20198;-49
2023/12/29 11:44:38;;;;;;;4.27;2.57;;;;;;;;;;5073449;28;20203;-49
2023/12/29 11:47:04;;;;;;;4.53;2.93;;;;;;;;;;5073290;28;20238;-50
2023/12/29 11:49:57;;;;;;;2.90;2.27;;;;;;;;;;5073151;28;20203;-50
2023/12/29 11:52:34;;;;;;;2.90;2.60;;;;;;;;;;5073302;28;20249;-50
2023/12/29 11:55:07;;;;;;;4.47;2.60;;;;;;;;;;5073212;28;20214;-49
2023/12/29 11:57:33;;;;;;;3.37;2.33;;;;;;;;;;5071941;28;20235;-50
2023/12/29 12:00:01;;;;;;;4.07;2.30;;;;;;;;;;5051975;28;20227;-52
2023/12/29 12:02:28;;;;;;;5.53;2.23;;;;;;;;;;5047214;28;20241;-50
2023/12/29 12:04:54;;;;;;;5.27;2.20;;;;;;;;;;5071789;28;20723;-49
2023/12/29 12:07:35;;;;;;;5.00;2.00;;;;;;;;;;5073065;28;20192;-51
2023/12/29 12:10:16;;;;;;;2.90;2.03;;;;;;;;;;5072951;28;20200;-51
2023/12/29 12:12:44;;;;;;;3.90;2.03;;;;;;;;;;5072439;28;20294;-51
2023/12/29 12:15:25;;;;;;;2.90;2.10;;;;;;;;;;5072858;28;20192;-50
2023/12/29 12:17:51;;;;;;;7.33;3.43;;;;;;;;;;5071954;28;20237;-50
2023/12/29 12:20:17;;;;;;;7.13;2.67;;;;;;;;;;5072658;28;20719;-50
2023/12/29 12:22:44;;;;;;;4.13;2.63;;;;;;;;;;5072586;28;20191;-50
2023/12/29 12:25:12;;;;;;;4.10;2.30;;;;;;;;;;5072521;28;20191;-50
2023/12/29 12:27:38;;;;;;;4.93;2.40;;;;;;;;;;5067419;28;20211;-49
2023/12/29 12:30:09;;;;;;;5.13;2.50;;;;;;;;;;5072468;28;20203;-52
2023/12/29 12:32:36;;;;;;;4.73;2.50;;;;;;;;;;5072524;28;20257;-50
2023/12/29 12:35:03;;;;;;;3.33;1.90;;;;;;;;;;5071850;28;20219;-49
2023/12/29 12:37:31;;;;;;;7.60;3.00;;;;;;;;;;5072393;28;20223;-49
2023/12/29 12:39:57;;;;;;;3.40;2.40;;;;;;;;;;5071875;28;20200;-50
2023/12/29 12:42:24;;;;;;;3.77;2.57;;;;;;;;;;5072213;28;20570;-50
2023/12/29 12:44:55;;;;;;;5.77;2.70;;;;;;;;;;5072139;28;20234;-50
2023/12/29 12:47:26;;;;;;;2.73;1.97;;;;;;;;;;5071922;28;20232;-51
2023/12/29 12:49:52;;;;;;;3.87;2.23;;;;;;;;;;5072153;28;20208;-50
2023/12/29 12:52:18;;;;;;;3.40;1.90;;;;;;;;;;5071987;28;20206;-51
2023/12/29 12:54:46;;;;;;;1.97;1.63;;;;;;;;;;5070388;28;20587;-51
2023/12/29 12:57:13;;;;;;;7.57;2.80;;;;;;;;;;5050592;28;20224;-51
2023/12/29 12:59:39;;;;;;;2.67;1.60;;;;;;;;;;5052104;28;20574;-50
2023/12/29 13:02:06;;;;;;;2.30;1.73;;;;;;;;;;5048653;28;20246;-51
2023/12/29 13:04:33;;;;;;;2.90;1.60;;;;;;;;;;5049492;28;20323;-51
2023/12/29 13:06:59;;;;;;;1.60;1.17;;;;;;;;;;5052065;28;20204;-51
2023/12/29 13:09:30;;;;;;;3.13;1.40;;;;;;;;;;5042415;28;20246;-51
2023/12/29 13:12:07;;;;;;;3.67;1.23;;;;;;;;;;5033695;28;20743;-50
2023/12/29 13:14:33;;;;;;;3.07;1.27;;;;;;;;;;5039459;28;20192;-51
2023/12/29 13:17:05;;;;;;;3.37;1.33;;;;;;;;;;5052153;28;20238;-51
2023/12/29 13:19:32;;;;;;;2.67;1.30;;;;;;;;;;5051723;28;20200;-51
2023/12/29 13:22:00;;;;;;;2.47;1.50;;;;;;;;;;5069457;28;20299;-51
2023/12/29 13:24:26;;;;;;;4.77;1.97;;;;;;;;;;5071577;28;20681;-51
2023/12/29 13:26:53;;;;;;;3.80;1.70;;;;;;;;;;5071524;28;20195;-50
2023/12/29 13:29:20;;;;;;;2.37;1.77;;;;;;;;;;5069731;28;20195;-50
2023/12/29 13:31:47;;;;;;;11.27;2.10;;;;;;;;;;5030178;28;20209;-50
2023/12/29 13:34:15;;;;;;;4.40;1.90;;;;;;;;;;5067942;28;20250;-51
2023/12/29 13:36:43;;;;;;;3.90;1.83;;;;;;;;;;5071482;28;20215;-50
2023/12/29 13:39:15;;;;;;;3.30;1.70;;;;;;;;;;5071436;28;20234;-49
2023/12/29 13:41:41;;;;;;;1.73;1.40;;;;;;;;;;5070912;28;20649;-50
2023/12/29 13:44:08;;;;;;;1.83;1.50;;;;;;;;;;5070725;28;20227;-50
2023/12/29 13:46:34;;;;;;;2.03;1.83;;;;;;;;;;5071050;28;20305;-50
2023/12/29 13:49:00;;;;;;;1.87;1.40;;;;;;;;;;5071274;28;20200;-50
2023/12/29 13:51:26;;;;;;;2.47;1.50;;;;;;;;;;5069929;28;20241;-49
2023/12/29 13:53:58;;;;;;;3.00;1.17;;;;;;;;;;5071096;28;20237;-49
2023/12/29 13:56:25;;;;;;;3.37;1.10;;;;;;;;;;5071164;28;20247;-50
2023/12/29 13:58:52;;;;;;;3.17;1.63;;;;;;;;;;5071164;28;20298;-51
2023/12/29 14:01:18;;;;;;;1.73;1.20;;;;;;;;;;5071249;28;20650;-49
2023/12/29 14:03:47;;;;;;;2.10;1.20;;;;;;;;;;5071696;28;20202;-49
2023/12/29 14:06:20;;;;;;;3.10;1.70;;;;;;;;;;5060265;28;20208;-50
2023/12/29 14:08:47;;;;;;;1.10;1.00;;;;;;;;;;5071729;28;20207;-50
2023/12/29 14:11:13;;;;;;;2.73;1.30;;;;;;;;;;5066893;28;20212;-50
2023/12/29 14:13:43;;;;;;;2.87;1.70;;;;;;;;;;5044857;28;20604;-50
2023/12/29 14:16:08;;;;;;;2.30;1.07;;;;;;;;;;5025606;28;20216;-51
2023/12/29 14:18:47;;;;;;;2.30;1.10;;;;;;;;;;5045002;28;20278;-51
2023/12/29 14:21:26;;;;;;;1.20;1.10;;;;;;;;;;5033191;28;20201;-52
2023/12/29 14:23:59;;;;;;;2.07;1.40;;;;;;;;;;5049057;28;20189;-52
2023/12/29 14:26:26;;;;;;;2.00;1.80;;;;;;;;;;5042742;28;20201;-50
2023/12/29 14:29:01;;;;;;;5.50;2.77;;;;;;;;;;5054265;28;20753;-51
2023/12/29 14:31:27;;;;;;;5.83;3.00;;;;;;;;;;5049098;28;20219;-51
2023/12/29 14:33:53;;;;;;;4.10;1.70;;;;;;;;;;5068504;28;20197;-51
2023/12/29 14:36:19;;;;;;;3.17;1.60;;;;;;;;;;5054560;28;20203;-51
2023/12/29 14:38:45;;;;;;;1.80;1.33;;;;;;;;;;5046679;28;20215;-50